Estación Meteorológica Peña el Pijo (Robertgarden) [ 02/03/23 03:19:06 CET ]

Fecha Hora Presion(HPa) Temp (°C) Humedad % Rocio (°C) Viento ( m/s) Direccion Lluvia 1Hora(mm) Lluvia 24H(mm) LLuvia Total(mm)
2010-Nov-21 01:01:12 1001.900 6.4 73 1.9         2.07
2010-Nov-21 02:03:21 1001.200 6.3 73 1.8         2.07
2010-Nov-21 03:01:12 1000.400 6.0 73 1.5         2.07
2010-Nov-21 04:01:14 999.800 5.5 71 0.7         2.07
2010-Nov-21 05:01:10 998.900 5.4 72 0.8         2.07
2010-Nov-21 06:01:11 999.200 4.5 75 0.4         2.07
2010-Nov-21 07:01:16 1000.100 4.3 70 -0.7         2.07
2010-Nov-21 08:01:18 1000.400 4.2 69 -1.0         2.07
2010-Nov-21 09:01:12 1000.800 4.1 74 -0.1         2.07
2010-Nov-21 10:01:14 1001.200 3.8 81 0.9         2.07
2010-Nov-21 11:01:12 1001.800 3.9 82 1.1         2.07
2010-Nov-21 12:01:14 1001.600 4.2 85 1.9         2.07
2010-Nov-21 13:01:16 1001.300 4.7 85 2.4         2.07
2010-Nov-21 14:01:13 1000.700 4.8 84 2.3         2.07
2010-Nov-21 15:01:13 1000.400 5.0 83 2.3         2.07
2010-Nov-21 16:01:15 1000.400 5.3 84 2.8         2.07
2010-Nov-21 17:01:13 1000.200 4.8 85 2.5         2.07
2010-Nov-21 18:01:16 1000.100 4.9 86 2.7         2.07
2010-Nov-21 19:01:13 1000.300 4.9 84 2.4         2.07
2010-Nov-21 20:01:12 1000.000 4.8 86 2.6         2.07
2010-Nov-21 21:01:13 1000.300 4.4 86 2.2         2.07
2010-Nov-21 22:01:14 1000.400 3.8 88 2.0         2.07
2010-Nov-21 23:01:12 1000.600 3.6 89 1.9         2.07

Temperatura Máxima:    Temperatura Mínima:
Presión Máxima:1001.900 Hpa    Presión Mínima:998.900 Hpa


Volver